createdAt,value
2023-05-14T00:02:03.389Z,101500.25
2023-05-14T00:04:30.662Z,101499.44
2023-05-14T00:06:58.869Z,101505.72
2023-05-14T00:09:25.872Z,101505.75
2023-05-14T00:11:53.233Z,101505.03
2023-05-14T00:14:21.067Z,101505.19
2023-05-14T00:16:48.455Z,101513.22
2023-05-14T00:19:15.692Z,101515.94
2023-05-14T00:21:43.133Z,101507.22
2023-05-14T00:24:10.202Z,101509.06
2023-05-14T00:26:37.490Z,101506.53
2023-05-14T00:29:04.894Z,101504.84
2023-05-14T00:31:32.307Z,101502.31
2023-05-14T00:33:59.425Z,101506.78
2023-05-14T00:36:26.765Z,101504.22
2023-05-14T00:38:53.869Z,101503.41
2023-05-14T00:41:21.842Z,101503.44
2023-05-14T00:43:48.825Z,101502.63
2023-05-14T00:46:18.138Z,101504.50
2023-05-14T00:48:46.740Z,101510.75
2023-05-14T00:51:19.999Z,101506.44
2023-05-14T00:53:47.688Z,101510.06
2023-05-14T00:56:16.643Z,101505.69
2023-05-14T00:58:43.832Z,101499.59
2023-05-14T01:01:12.341Z,101503.16
2023-05-14T01:03:39.620Z,101501.44
2023-05-14T01:06:16.079Z,101495.28
2023-05-14T01:09:14.055Z,101498.00
2023-05-14T01:11:55.713Z,101498.94
2023-05-14T01:14:33.186Z,101501.63
2023-05-14T01:17:04.266Z,101500.75
2023-05-14T01:19:34.589Z,101500.75
2023-05-14T01:22:01.894Z,101500.75
2023-05-14T01:24:29.131Z,101507.00
2023-05-14T01:27:03.907Z,101499.94
2023-05-14T01:29:32.735Z,101496.50
2023-05-14T01:32:01.177Z,101507.03
2023-05-14T01:34:31.422Z,101503.59
2023-05-14T01:37:00.549Z,101503.72
2023-05-14T01:39:28.286Z,101503.78
2023-05-14T01:41:56.463Z,101506.50
2023-05-14T01:44:24.111Z,101503.13
2023-05-14T01:46:51.399Z,101508.47
2023-05-14T01:49:19.706Z,101512.06
2023-05-14T01:51:48.422Z,101498.84
2023-05-14T01:54:15.556Z,101498.91
2023-05-14T01:56:42.878Z,101508.66
2023-05-14T01:59:10.341Z,101511.38
2023-05-14T02:01:43.818Z,101507.03
2023-05-14T02:04:11.081Z,101507.94
2023-05-14T02:06:39.808Z,101502.69
2023-05-14T02:09:07.219Z,101502.69
2023-05-14T02:11:34.605Z,101504.50
2023-05-14T02:14:01.621Z,101501.91
2023-05-14T02:16:29.748Z,101507.22
2023-05-14T02:18:59.649Z,101503.72
2023-05-14T02:21:50.740Z,101499.38
2023-05-14T02:24:17.862Z,101502.09
2023-05-14T02:26:45.336Z,101503.88
2023-05-14T02:29:12.773Z,101503.91
2023-05-14T02:31:41.924Z,101508.34
2023-05-14T02:34:09.476Z,101508.41
2023-05-14T02:36:36.855Z,101507.56
2023-05-14T02:39:08.062Z,101504.06
2023-05-14T02:41:38.712Z,101513.78
2023-05-14T02:44:05.940Z,101512.00
2023-05-14T02:46:33.654Z,101512.06
2023-05-14T02:49:00.811Z,101506.72
2023-05-14T02:51:29.553Z,101512.00
2023-05-14T02:53:56.800Z,101516.44
2023-05-14T02:56:24.199Z,101519.09
2023-05-14T02:58:51.341Z,101512.00
2023-05-14T03:01:19.104Z,101515.50
2023-05-14T03:03:47.145Z,101522.44
2023-05-14T03:06:14.603Z,101511.75
2023-05-14T03:08:43.144Z,101516.03
2023-05-14T03:11:11.508Z,101524.66
2023-05-14T03:13:38.480Z,101521.78
2023-05-14T03:16:06.032Z,101522.34
2023-05-14T03:18:34.865Z,101517.63
2023-05-14T03:21:03.964Z,101519.03
2023-05-14T03:23:35.118Z,101521.25
2023-05-14T03:26:02.571Z,101524.31
2023-05-14T03:28:29.756Z,101524.72
2023-05-14T03:30:57.720Z,101525.09
2023-05-14T03:33:26.889Z,101529.00
2023-05-14T03:35:54.235Z,101530.25
2023-05-14T03:38:23.280Z,101526.13
2023-05-14T03:40:50.694Z,101527.84
2023-05-14T03:43:18.054Z,101542.25
2023-05-14T03:45:45.627Z,101530.03
2023-05-14T03:48:13.015Z,101532.16
2023-05-14T03:50:40.636Z,101533.13
2023-05-14T03:53:12.180Z,101537.34
2023-05-14T03:55:42.572Z,101539.78
2023-05-14T03:58:14.339Z,101535.19
2023-05-14T04:00:44.317Z,101536.09
2023-05-14T04:03:13.881Z,101536.41
2023-05-14T04:05:41.596Z,101524.53
2023-05-14T04:08:08.753Z,101532.84
2023-05-14T04:10:36.238Z,101531.38
2023-05-14T04:13:05.590Z,101532.78
2023-05-14T04:15:35.870Z,101538.41
2023-05-14T04:18:09.476Z,101533.28
2023-05-14T04:20:37.232Z,101540.41
2023-05-14T04:23:05.480Z,101533.31
2023-05-14T04:25:34.503Z,101534.09
2023-05-14T04:28:01.619Z,101532.97
2023-05-14T04:30:31.165Z,101543.44
2023-05-14T04:32:58.350Z,101538.63
2023-05-14T04:35:25.844Z,101536.44
2023-05-14T04:37:52.951Z,101546.81
2023-05-14T04:40:20.489Z,101545.66
2023-05-14T04:42:47.606Z,101545.34
2023-05-14T04:48:08.055Z,101537.78
2023-05-14T04:50:39.216Z,101541.22
2023-05-14T04:53:06.467Z,101534.31
2023-05-14T04:55:34.679Z,101532.22
2023-05-14T04:58:01.980Z,101543.34
2023-05-14T05:00:30.979Z,101537.03
2023-05-14T05:03:28.532Z,101542.06
2023-05-14T05:05:59.780Z,101533.50
2023-05-14T05:08:26.987Z,101539.13
2023-05-14T05:11:00.704Z,101542.53
2023-05-14T05:16:32.954Z,101547.59
2023-05-14T05:19:00.436Z,101551.59
2023-05-14T05:21:28.551Z,101548.22
2023-05-14T05:23:58.153Z,101552.59
2023-05-14T05:26:28.279Z,101546.44
2023-05-14T05:28:57.462Z,101548.53
2023-05-14T05:31:26.292Z,101547.03
2023-05-14T05:33:53.859Z,101544.16
2023-05-14T05:36:21.604Z,101547.19
2023-05-14T05:38:49.257Z,101542.47
2023-05-14T05:53:11.621Z,101560.25
2023-05-14T05:55:47.016Z,101553.03
2023-05-14T05:58:22.723Z,101551.53
2023-05-14T06:00:50.384Z,101550.63
2023-05-14T06:03:19.062Z,101553.78
2023-05-14T06:05:50.490Z,101548.28
2023-05-14T06:08:19.473Z,101547.66
2023-05-14T06:11:02.474Z,101549.75
2023-05-14T06:19:18.707Z,101545.09
2023-05-14T06:21:48.277Z,101543.72
2023-05-14T06:24:17.723Z,101537.47
2023-05-14T06:26:47.167Z,101534.00
2023-05-14T06:32:11.003Z,101526.19
2023-05-14T06:34:41.065Z,101527.94
2023-05-14T06:39:52.414Z,101526.09
2023-05-14T06:42:19.978Z,101520.47
2023-05-14T06:44:47.348Z,101519.22
2023-05-14T06:47:27.673Z,101519.06
2023-05-14T06:49:59.387Z,101520.69
2023-05-14T06:52:26.972Z,101515.41
2023-05-14T06:54:54.307Z,101516.78
2023-05-14T06:57:22.328Z,101517.22
2023-05-14T06:59:54.248Z,101517.81
2023-05-14T07:02:25.527Z,101510.53
2023-05-14T07:04:52.893Z,101515.72
2023-05-14T07:10:02.361Z,101516.94
2023-05-14T07:12:32.800Z,101503.88
2023-05-14T07:15:02.107Z,101504.19
2023-05-14T07:17:30.251Z,101506.25
2023-05-14T07:19:57.559Z,101499.34
2023-05-14T07:22:25.606Z,101495.03
2023-05-14T07:25:10.562Z,101508.69
2023-05-14T07:30:20.582Z,101495.91
2023-05-14T07:32:51.062Z,101496.97
2023-05-14T07:35:18.953Z,101485.53
2023-05-14T07:37:50.076Z,101494.84
2023-05-14T07:40:17.257Z,101492.63
2023-05-14T07:42:44.752Z,101489.41
2023-05-14T07:45:12.293Z,101490.84
2023-05-14T07:47:47.471Z,101489.59
2023-05-14T07:50:19.882Z,101494.28
2023-05-14T07:52:48.674Z,101483.75
2023-05-14T07:55:20.432Z,101475.72
2023-05-14T07:57:48.842Z,101476.84
2023-05-14T08:00:19.319Z,101478.38
2023-05-14T08:02:52.124Z,101479.66
2023-05-14T08:05:19.636Z,101477.09
2023-05-14T08:07:47.519Z,101479.28
2023-05-14T08:10:14.682Z,101481.34
2023-05-14T08:12:42.923Z,101475.66
2023-05-14T08:15:10.636Z,101464.31
2023-05-14T08:17:44.765Z,101473.91
2023-05-14T08:20:14.703Z,101462.84
2023-05-14T08:22:42.218Z,101464.34
2023-05-14T08:25:09.481Z,101468.28
2023-05-14T08:27:39.040Z,101472.16
2023-05-14T08:30:06.870Z,101464.19
2023-05-14T08:32:35.721Z,101462.41
2023-05-14T08:35:02.840Z,101462.38
2023-05-14T08:37:30.538Z,101448.94
2023-05-14T08:39:57.571Z,101455.34
2023-05-14T08:42:26.011Z,101444.69
2023-05-14T08:45:04.001Z,101449.16
2023-05-14T08:47:32.070Z,101453.41
2023-05-14T08:50:04.716Z,101446.94
2023-05-14T08:52:36.490Z,101450.63
2023-05-14T08:55:13.597Z,101451.63
2023-05-14T08:57:41.447Z,101444.13
2023-05-14T09:00:12.136Z,101431.03
2023-05-14T09:02:40.953Z,101444.22
2023-05-14T09:05:18.086Z,101432.03
2023-05-14T09:07:45.950Z,101435.16
2023-05-14T09:10:16.935Z,101437.66
2023-05-14T09:12:44.913Z,101434.47
2023-05-14T09:15:12.514Z,101425.56
2023-05-14T09:17:44.139Z,101423.56
2023-05-14T09:20:18.267Z,101430.19
2023-05-14T09:25:30.146Z,101419.78
2023-05-14T09:28:04.240Z,101418.00
2023-05-14T09:30:32.541Z,101414.00
2023-05-14T09:33:01.756Z,101412.91
2023-05-14T09:35:29.200Z,101412.31
2023-05-14T09:37:59.524Z,101411.50
2023-05-14T09:40:29.062Z,101407.50
2023-05-14T09:43:01.116Z,101408.19
2023-05-14T09:45:33.724Z,101403.88
2023-05-14T09:48:11.853Z,101395.56
2023-05-14T09:53:30.338Z,101401.13
2023-05-14T09:59:29.202Z,101392.78
2023-05-14T10:02:30.604Z,101392.66
2023-05-14T10:05:02.675Z,101390.38
2023-05-14T10:07:35.546Z,101393.19
2023-05-14T10:10:07.133Z,101385.19
2023-05-14T10:12:42.040Z,101380.50
2023-05-14T10:15:34.853Z,101380.72
2023-05-14T10:24:00.900Z,101379.19
2023-05-14T10:32:43.139Z,101367.03
2023-05-14T10:35:22.185Z,101367.88
2023-05-14T10:41:21.646Z,101361.88
2023-05-14T10:43:52.594Z,101368.91
2023-05-14T10:49:42.414Z,101353.81
2023-05-14T10:52:13.610Z,101358.56
2023-05-14T10:54:53.429Z,101354.66
2023-05-14T10:57:24.832Z,101350.59
2023-05-14T11:00:02.396Z,101349.56
2023-05-14T11:02:34.178Z,101346.78
2023-05-14T11:05:08.370Z,101346.69
2023-05-14T11:07:36.793Z,101347.28
2023-05-14T11:10:09.166Z,101349.47
2023-05-14T11:12:41.885Z,101351.44
2023-05-14T11:15:11.423Z,101349.75
2023-05-14T11:17:42.345Z,101357.16
2023-05-14T11:20:30.496Z,101351.16
2023-05-14T11:22:58.474Z,101338.91
2023-05-14T11:25:26.097Z,101337.16
2023-05-14T11:28:01.529Z,101338.84
2023-05-14T11:30:29.591Z,101337.13
2023-05-14T11:32:59.319Z,101331.38
2023-05-14T11:35:35.647Z,101331.03
2023-05-14T11:38:03.346Z,101333.00
2023-05-14T11:43:39.767Z,101324.72
2023-05-14T11:46:07.243Z,101327.53
2023-05-14T11:48:36.134Z,101331.78
2023-05-14T11:51:05.030Z,101323.88
2023-05-14T11:53:33.530Z,101329.06
2023-05-14T11:56:05.680Z,101326.81
2023-05-14T11:58:45.844Z,101318.53
2023-05-14T12:01:16.454Z,101319.25
2023-05-14T12:03:46.027Z,101320.00
2023-05-14T12:06:24.002Z,101314.31
2023-05-14T12:08:53.013Z,101313.00
2023-05-14T12:11:22.030Z,101309.97
2023-05-14T12:13:49.528Z,101309.25
2023-05-14T12:16:19.156Z,101309.41
2023-05-14T12:18:47.245Z,101300.03
2023-05-14T12:21:14.981Z,101305.69
2023-05-14T12:23:42.666Z,101309.53
2023-05-14T12:26:10.541Z,101299.59
2023-05-14T12:28:43.644Z,101297.88
2023-05-14T12:31:11.073Z,101288.38
2023-05-14T12:33:38.575Z,101277.72
2023-05-14T12:36:20.731Z,101279.47
2023-05-14T12:39:10.422Z,101273.97
2023-05-14T12:41:37.661Z,101272.84
2023-05-14T12:44:05.576Z,101269.72
2023-05-14T12:46:34.551Z,101262.41
2023-05-14T12:49:16.544Z,101264.75
2023-05-14T12:55:22.612Z,101263.75
2023-05-14T12:57:49.953Z,101249.75
2023-05-14T13:00:18.695Z,101256.75
2023-05-14T13:02:47.165Z,101249.59
2023-05-14T13:05:14.955Z,101253.19
2023-05-14T13:07:46.172Z,101248.03
2023-05-14T13:10:14.206Z,101255.44
2023-05-14T13:12:44.545Z,101244.06
2023-05-14T13:15:12.486Z,101251.13
2023-05-14T13:17:42.123Z,101241.94
2023-05-14T13:20:17.782Z,101231.84
2023-05-14T13:22:46.144Z,101234.91
2023-05-14T13:25:17.320Z,101227.94
2023-05-14T13:27:47.806Z,101223.94
2023-05-14T13:30:15.983Z,101227.31
2023-05-14T13:32:43.205Z,101221.50
2023-05-14T13:37:59.825Z,101211.75
2023-05-14T13:52:26.763Z,101196.41
2023-05-14T13:57:40.325Z,101199.25
2023-05-14T14:00:22.399Z,101191.38
2023-05-14T14:08:38.858Z,101184.34
2023-05-14T14:11:06.445Z,101188.94
2023-05-14T14:52:49.494Z,101189.69
2023-05-14T15:14:13.412Z,101179.97
2023-05-14T15:16:45.016Z,101182.44
2023-05-14T15:22:24.919Z,101172.41
2023-05-14T15:24:53.127Z,101168.13
2023-05-14T15:27:40.991Z,101174.09
2023-05-14T15:30:08.582Z,101162.66
2023-05-14T15:32:36.266Z,101158.34
2023-05-14T15:38:07.768Z,101160.13
2023-05-14T15:46:43.325Z,101161.75
2023-05-14T16:26:03.557Z,101129.72
2023-05-14T16:28:34.307Z,101135.00
2023-05-14T16:33:48.669Z,101121.41
2023-05-14T16:39:16.468Z,101133.56
2023-05-14T16:47:51.037Z,101139.38
2023-05-14T16:58:37.171Z,101143.94
2023-05-14T17:01:10.182Z,101137.94
2023-05-14T17:03:39.037Z,101134.53
2023-05-14T17:06:51.667Z,101143.41
2023-05-14T17:21:59.502Z,101137.41
2023-05-14T17:33:54.729Z,101144.13
2023-05-14T17:36:45.344Z,101143.00
2023-05-14T17:42:08.554Z,101150.47
2023-05-14T17:47:35.921Z,101146.25
2023-05-14T17:53:29.307Z,101158.00
2023-05-14T17:55:59.722Z,101161.06
2023-05-14T17:58:30.028Z,101169.66
2023-05-14T18:01:01.505Z,101177.44
2023-05-14T18:03:29.516Z,101193.94
2023-05-14T18:05:58.606Z,101192.59
2023-05-14T18:08:26.955Z,101208.41
2023-05-14T18:11:04.631Z,101204.47
2023-05-14T18:13:32.803Z,101207.63
2023-05-14T18:16:02.453Z,101202.69
2023-05-14T18:21:30.271Z,101218.38
2023-05-14T18:26:57.751Z,101222.59
2023-05-14T18:29:25.014Z,101225.28
2023-05-14T18:31:57.662Z,101225.44
2023-05-14T18:37:17.281Z,101231.88
2023-05-14T18:39:56.315Z,101232.91
2023-05-14T18:45:25.732Z,101239.44
2023-05-14T18:48:04.582Z,101235.06
2023-05-14T19:05:31.476Z,101211.84
2023-05-14T19:08:16.606Z,101214.16
2023-05-14T19:10:45.053Z,101207.41
2023-05-14T19:16:06.184Z,101203.94
2023-05-14T19:18:34.814Z,101208.91
2023-05-14T19:21:02.032Z,101203.09
2023-05-14T19:23:40.800Z,101200.84
2023-05-14T19:26:32.368Z,101201.28
2023-05-14T19:34:27.674Z,101192.25
2023-05-14T19:39:37.238Z,101190.03
2023-05-14T19:42:05.008Z,101179.75
2023-05-14T19:44:43.715Z,101192.19
2023-05-14T19:47:16.752Z,101193.31
2023-05-14T19:49:44.453Z,101196.25
2023-05-14T19:52:37.400Z,101188.44
2023-05-14T19:55:05.916Z,101187.66
2023-05-14T20:00:32.066Z,101193.31
2023-05-14T20:03:01.304Z,101195.31
2023-05-14T20:05:28.498Z,101190.38
2023-05-14T20:07:56.117Z,101190.50
2023-05-14T20:10:24.315Z,101184.44
2023-05-14T20:12:51.814Z,101178.47
2023-05-14T20:15:19.102Z,101181.44
2023-05-14T20:17:46.660Z,101178.09
2023-05-14T20:20:14.252Z,101174.09
2023-05-14T20:22:42.970Z,101170.56
2023-05-14T20:25:10.353Z,101166.47
2023-05-14T20:27:37.992Z,101161.56
2023-05-14T20:30:05.990Z,101167.09
2023-05-14T20:32:33.792Z,101171.84
2023-05-14T20:35:02.338Z,101177.44
2023-05-14T20:37:32.525Z,101176.97
2023-05-14T20:40:01.306Z,101171.97
2023-05-14T20:42:29.057Z,101181.88
2023-05-14T20:44:56.382Z,101181.31
2023-05-14T20:47:26.862Z,101172.81
2023-05-14T20:49:54.142Z,101180.19
2023-05-14T20:58:03.667Z,101175.84
